San Benito, TX

2:27 AM CST en Noviembre 28, 2014 (GMT -0600)
Valley International | Change Station
CLOSE
Current Station
Aeropuerto
Location: Harlingen,
Altura: 36 ft
Estaciones meteorológicas cercanas

Alt 36 ft 26.23 °N, 97.65 °W | Updated 35 minutes ago

Niebla
Niebla
52 ° F
Sensación térmica 52 ° F
N
0
Viento Variable Viento desde Norte

Hoy
Alta -- | Baja -- ° F
--% Posibilidad de precipitaciones
Ayer
Alta -- | Baja -- ° F
Precip. -- pul
6:58 AM 5:38 PM
Creciente, 38% visible
Presión 30.34 pul
Visibilidad 0.5 Millas
Nubes Despejado
Punto de rocío 51 ° F
Humedad 97%
Precipitaciones 0.00 pul
Espesor de la nieve No disponible.
UV 0 de una escala de 12
Polen 5.30 de una escala de 12
Calidad del aire No disponible.
Flu Activity No disponible.
METAR KHRL 280752Z 00000KT 1/2SM FG CLR 11/11 A3034 RMK AO2 SLP272 T01110106 $

More Conditions Fewer Conditions

Presión 30.34 pul
Visibilidad 0.5 Millas
Nubes Despejado
Punto de rocío 51 ° F
Humedad 97%
Precipitaciones 0.00 pul
Espesor de la nieve No disponible.
UV 0 de una escala de 12
Polen 5.30 de una escala de 12
Calidad del aire No disponible.
Flu Activity No disponible.
METAR KHRL 280752Z 00000KT 1/2SM FG CLR 11/11 A3034 RMK AO2 SLP272 T01110106 $

More Conditions Fewer Conditions

Nowcast | as of 12:28 am CST on November 28, 2014

Through 330 am...ground fog will develop across Cameron and Willacy counties...aided by clear skies and light winds. Visibility of a half mile or less will be possible...with locally dense fog reducing visibility to a quarter of a mile or less in some areas. Motorists should slow down...use low beam headlights...and maintain a safe distance between vehicles.

×

10-Day Weather Forecast

Almanac

Astronomía

Nov. 28, 2014 Salida Puesta
Hora real
Crepúsculo civil
Crepúsculo náutico
Crepúsculo astronómico
Luna
Horas de luz
Horas de luz
Tomorrow will be .
, % of the Moon is Illuminated

Extremos de hoy

Máximos del estado Bajos del estado

Community

WunderPhotos

Upload Photos

1,774,191 ¡fotos cargadas!

WunderBlogs® & News

Nearby

Calidad del aire

  Calidad del aire Índice AQ Contaminante
Not available.

Grosos de nieve

Estación Profundido Altura

Actividad de terremotos

Ciudad Distance Mag. Tiempo y dato
Magnitud mínima muestra es 2,5.

Temperaturas de aguas costeras

Lugar Temperatura

Estaciones meteorológicas cercanas